sensor_id;sensor_type;location;lat;lon;timestamp;pressure;altitude;pressure_sealevel;temperature;humidity
48846;BME280;34665;51.886;5.436;2022-11-25T00:00:26;100777.00;;;13.12;100.00
48846;BME280;34665;51.886;5.436;2022-11-25T00:02:52;100772.03;;;13.16;100.00
48846;BME280;34665;51.886;5.436;2022-11-25T00:05:18;100762.13;;;13.10;100.00
48846;BME280;34665;51.886;5.436;2022-11-25T00:07:43;100753.88;;;13.11;100.00
48846;BME280;34665;51.886;5.436;2022-11-25T00:10:09;100763.06;;;13.29;100.00
48846;BME280;34665;51.886;5.436;2022-11-25T00:12:34;100748.97;;;13.01;100.00
48846;BME280;34665;51.886;5.436;2022-11-25T00:14:59;100756.66;;;13.30;100.00
48846;BME280;34665;51.886;5.436;2022-11-25T00:17:25;100759.56;;;13.28;100.00
48846;BME280;34665;51.886;5.436;2022-11-25T00:19:50;100758.06;;;13.00;100.00
48846;BME280;34665;51.886;5.436;2022-11-25T00:22:16;100758.47;;;12.97;100.00
48846;BME280;34665;51.886;5.436;2022-11-25T00:24:41;100755.09;;;13.54;100.00
48846;BME280;34665;51.886;5.436;2022-11-25T00:27:07;100746.81;;;13.17;100.00
48846;BME280;34665;51.886;5.436;2022-11-25T00:29:33;100755.41;;;13.32;100.00
48846;BME280;34665;51.886;5.436;2022-11-25T00:31:59;100748.66;;;14.31;100.00
48846;BME280;34665;51.886;5.436;2022-11-25T00:34:25;100747.22;;;13.14;100.00
48846;BME280;34665;51.886;5.436;2022-11-25T00:36:51;100750.63;;;13.34;100.00
48846;BME280;34665;51.886;5.436;2022-11-25T00:39:17;100746.13;;;12.89;100.00
48846;BME280;34665;51.886;5.436;2022-11-25T00:41:45;100737.19;;;13.34;100.00
48846;BME280;34665;51.886;5.436;2022-11-25T00:44:30;100742.00;;;13.26;100.00
48846;BME280;34665;51.886;5.436;2022-11-25T00:47:11;100732.53;;;13.23;100.00
48846;BME280;34665;51.886;5.436;2022-11-25T00:49:42;100735.72;;;13.07;100.00
48846;BME280;34665;51.886;5.436;2022-11-25T00:52:12;100734.53;;;12.89;100.00
48846;BME280;34665;51.886;5.436;2022-11-25T00:54:38;100730.94;;;13.47;100.00
48846;BME280;34665;51.886;5.436;2022-11-25T00:57:03;100729.69;;;13.50;100.00
48846;BME280;34665;51.886;5.436;2022-11-25T00:59:29;100725.97;;;13.51;100.00
48846;BME280;34665;51.886;5.436;2022-11-25T01:01:57;100731.41;;;12.99;100.00
48846;BME280;34665;51.886;5.436;2022-11-25T01:04:23;100727.78;;;13.57;100.00
48846;BME280;34665;51.886;5.436;2022-11-25T01:06:48;100730.16;;;13.40;100.00
48846;BME280;34665;51.886;5.436;2022-11-25T01:09:14;100733.28;;;13.69;100.00
48846;BME280;34665;51.886;5.436;2022-11-25T01:11:40;100725.69;;;13.59;100.00
48846;BME280;34665;51.886;5.436;2022-11-25T01:14:07;100728.28;;;13.41;100.00
48846;BME280;34665;51.886;5.436;2022-11-25T01:16:33;100736.19;;;13.68;100.00
48846;BME280;34665;51.886;5.436;2022-11-25T01:18:59;100728.38;;;13.27;100.00
48846;BME280;34665;51.886;5.436;2022-11-25T01:21:27;100732.06;;;13.33;100.00
48846;BME280;34665;51.886;5.436;2022-11-25T01:23:53;100733.75;;;13.59;100.00
48846;BME280;34665;51.886;5.436;2022-11-25T01:26:21;100737.41;;;13.40;100.00
48846;BME280;34665;51.886;5.436;2022-11-25T01:28:47;100730.47;;;13.57;100.00
48846;BME280;34665;51.886;5.436;2022-11-25T01:31:18;100732.19;;;13.52;100.00
48846;BME280;34665;51.886;5.436;2022-11-25T01:33:46;100745.66;;;13.70;100.00
48846;BME280;34665;51.886;5.436;2022-11-25T01:36:16;100742.72;;;13.79;100.00
48846;BME280;34665;51.886;5.436;2022-11-25T01:38:43;100742.72;;;14.23;100.00
48846;BME280;34665;51.886;5.436;2022-11-25T01:41:13;100742.00;;;14.34;100.00
48846;BME280;34665;51.886;5.436;2022-11-25T01:43:39;100744.91;;;14.32;100.00
48846;BME280;34665;51.886;5.436;2022-11-25T01:49:41;100746.03;;;14.25;100.00
48846;BME280;34665;51.886;5.436;2022-11-25T01:52:39;100754.00;;;14.75;100.00
48846;BME280;34665;51.886;5.436;2022-11-25T01:57:45;100758.81;;;14.29;100.00
48846;BME280;34665;51.886;5.436;2022-11-25T02:00:12;100750.88;;;14.16;100.00
48846;BME280;34665;51.886;5.436;2022-11-25T02:02:45;100758.38;;;14.32;100.00
48846;BME280;34665;51.886;5.436;2022-11-25T02:05:15;100760.81;;;14.15;100.00
48846;BME280;34665;51.886;5.436;2022-11-25T02:07:43;100781.44;;;14.22;100.00
48846;BME280;34665;51.886;5.436;2022-11-25T02:10:14;100770.19;;;14.06;100.00
48846;BME280;34665;51.886;5.436;2022-11-25T02:12:43;100778.44;;;14.11;100.00
48846;BME280;34665;51.886;5.436;2022-11-25T02:15:11;100777.50;;;13.73;100.00
48846;BME280;34665;51.886;5.436;2022-11-25T02:17:37;100789.09;;;14.43;100.00
48846;BME280;34665;51.886;5.436;2022-11-25T02:20:07;100802.56;;;13.93;100.00
48846;BME280;34665;51.886;5.436;2022-11-25T02:22:44;100808.56;;;13.95;100.00
48846;BME280;34665;51.886;5.436;2022-11-25T02:25:24;100800.78;;;14.56;100.00
48846;BME280;34665;51.886;5.436;2022-11-25T02:27:58;100798.78;;;14.00;100.00
48846;BME280;34665;51.886;5.436;2022-11-25T02:30:24;100807.19;;;13.85;100.00
48846;BME280;34665;51.886;5.436;2022-11-25T02:32:50;100793.91;;;13.58;100.00
48846;BME280;34665;51.886;5.436;2022-11-25T02:35:35;100784.88;;;13.78;100.00
48846;BME280;34665;51.886;5.436;2022-11-25T02:38:05;100783.28;;;13.31;100.00
48846;BME280;34665;51.886;5.436;2022-11-25T02:40:38;100775.19;;;13.45;100.00
48846;BME280;34665;51.886;5.436;2022-11-25T02:43:04;100773.31;;;14.03;100.00
48846;BME280;34665;51.886;5.436;2022-11-25T02:45:52;100789.44;;;14.03;100.00
48846;BME280;34665;51.886;5.436;2022-11-25T02:48:20;100781.91;;;14.37;100.00
48846;BME280;34665;51.886;5.436;2022-11-25T02:50:46;100795.50;;;13.98;100.00
48846;BME280;34665;51.886;5.436;2022-11-25T02:53:13;100791.78;;;14.43;100.00
48846;BME280;34665;51.886;5.436;2022-11-25T02:55:39;100793.84;;;14.67;100.00
48846;BME280;34665;51.886;5.436;2022-11-25T02:58:04;100785.44;;;13.61;100.00
48846;BME280;34665;51.886;5.436;2022-11-25T03:00:30;100790.47;;;13.38;100.00
48846;BME280;34665;51.886;5.436;2022-11-25T03:02:55;100803.63;;;13.14;100.00
48846;BME280;34665;51.886;5.436;2022-11-25T03:05:21;100817.63;;;14.00;100.00
48846;BME280;34665;51.886;5.436;2022-11-25T03:07:47;100818.16;;;13.52;100.00
48846;BME280;34665;51.886;5.436;2022-11-25T03:10:15;100805.09;;;13.87;100.00
48846;BME280;34665;51.886;5.436;2022-11-25T03:12:42;100786.09;;;14.08;100.00
48846;BME280;34665;51.886;5.436;2022-11-25T03:15:08;100761.47;;;14.55;100.00
48846;BME280;34665;51.886;5.436;2022-11-25T03:17:34;100757.13;;;14.54;100.00
48846;BME280;34665;51.886;5.436;2022-11-25T03:19:59;100759.81;;;14.10;100.00
48846;BME280;34665;51.886;5.436;2022-11-25T03:22:25;100773.72;;;14.88;100.00
48846;BME280;34665;51.886;5.436;2022-11-25T03:24:51;100771.09;;;14.44;100.00
48846;BME280;34665;51.886;5.436;2022-11-25T03:27:18;100799.00;;;14.24;100.00
48846;BME280;34665;51.886;5.436;2022-11-25T03:29:43;100801.41;;;14.76;100.00
48846;BME280;34665;51.886;5.436;2022-11-25T03:32:09;100802.41;;;14.38;100.00
48846;BME280;34665;51.886;5.436;2022-11-25T03:34:35;100799.72;;;15.13;100.00
48846;BME280;34665;51.886;5.436;2022-11-25T03:37:02;100808.47;;;14.27;100.00
48846;BME280;34665;51.886;5.436;2022-11-25T03:39:29;100803.28;;;14.95;100.00
48846;BME280;34665;51.886;5.436;2022-11-25T03:41:54;100814.06;;;14.51;100.00
48846;BME280;34665;51.886;5.436;2022-11-25T03:44:20;100817.41;;;14.71;100.00
48846;BME280;34665;51.886;5.436;2022-11-25T03:46:46;100815.63;;;14.14;100.00
48846;BME280;34665;51.886;5.436;2022-11-25T03:49:11;100814.81;;;14.39;100.00
48846;BME280;34665;51.886;5.436;2022-11-25T03:51:37;100825.28;;;14.47;100.00
48846;BME280;34665;51.886;5.436;2022-11-25T03:54:03;100829.78;;;14.03;100.00
48846;BME280;34665;51.886;5.436;2022-11-25T03:56:43;100839.91;;;14.33;100.00
48846;BME280;34665;51.886;5.436;2022-11-25T03:59:08;100830.88;;;14.20;100.00
48846;BME280;34665;51.886;5.436;2022-11-25T04:01:34;100828.31;;;15.14;100.00
48846;BME280;34665;51.886;5.436;2022-11-25T04:04:00;100835.94;;;14.10;100.00
48846;BME280;34665;51.886;5.436;2022-11-25T04:06:26;100824.88;;;15.07;100.00
48846;BME280;34665;51.886;5.436;2022-11-25T04:08:52;100823.13;;;14.56;100.00
48846;BME280;34665;51.886;5.436;2022-11-25T04:11:19;100820.25;;;14.95;100.00
48846;BME280;34665;51.886;5.436;2022-11-25T04:13:48;100821.00;;;15.02;100.00
48846;BME280;34665;51.886;5.436;2022-11-25T04:16:18;100835.59;;;15.44;100.00
48846;BME280;34665;51.886;5.436;2022-11-25T04:18:45;100834.13;;;15.29;100.00
48846;BME280;34665;51.886;5.436;2022-11-25T04:21:11;100835.28;;;14.84;100.00
48846;BME280;34665;51.886;5.436;2022-11-25T04:23:37;100847.56;;;14.99;100.00
48846;BME280;34665;51.886;5.436;2022-11-25T04:26:05;100845.09;;;14.79;100.00
48846;BME280;34665;51.886;5.436;2022-11-25T04:28:35;100852.16;;;15.10;100.00
48846;BME280;34665;51.886;5.436;2022-11-25T04:31:05;100864.22;;;15.87;100.00
48846;BME280;34665;51.886;5.436;2022-11-25T04:33:33;100866.09;;;14.88;100.00
48846;BME280;34665;51.886;5.436;2022-11-25T04:35:59;100871.56;;;15.19;100.00
48846;BME280;34665;51.886;5.436;2022-11-25T04:38:25;100867.06;;;14.94;100.00
48846;BME280;34665;51.886;5.436;2022-11-25T04:40:51;100882.59;;;14.73;100.00
48846;BME280;34665;51.886;5.436;2022-11-25T04:43:19;100874.44;;;14.04;100.00
48846;BME280;34665;51.886;5.436;2022-11-25T04:45:49;100888.03;;;14.41;100.00
48846;BME280;34665;51.886;5.436;2022-11-25T04:48:17;100889.22;;;15.33;100.00
48846;BME280;34665;51.886;5.436;2022-11-25T04:50:42;100892.44;;;15.24;100.00
48846;BME280;34665;51.886;5.436;2022-11-25T04:53:11;100883.38;;;15.18;100.00
48846;BME280;34665;51.886;5.436;2022-11-25T04:55:38;100884.50;;;15.29;100.00
48846;BME280;34665;51.886;5.436;2022-11-25T04:58:10;100886.44;;;15.22;100.00
48846;BME280;34665;51.886;5.436;2022-11-25T05:00:38;100888.16;;;14.97;100.00
48846;BME280;34665;51.886;5.436;2022-11-25T05:03:05;100891.56;;;13.84;100.00
48846;BME280;34665;51.886;5.436;2022-11-25T05:05:33;100902.97;;;14.37;100.00
48846;BME280;34665;51.886;5.436;2022-11-25T05:07:59;100898.34;;;14.44;100.00
48846;BME280;34665;51.886;5.436;2022-11-25T05:10:24;100898.34;;;14.44;100.00
48846;BME280;34665;51.886;5.436;2022-11-25T05:12:50;100910.00;;;14.38;100.00
48846;BME280;34665;51.886;5.436;2022-11-25T05:15:19;100909.88;;;14.26;100.00
48846;BME280;34665;51.886;5.436;2022-11-25T05:17:46;100908.72;;;14.15;100.00
48846;BME280;34665;51.886;5.436;2022-11-25T05:20:12;100922.78;;;14.17;100.00
48846;BME280;34665;51.886;5.436;2022-11-25T05:22:38;100926.91;;;13.81;100.00
48846;BME280;34665;51.886;5.436;2022-11-25T05:25:06;100922.94;;;13.45;100.00
48846;BME280;34665;51.886;5.436;2022-11-25T05:27:37;100920.44;;;14.53;100.00
48846;BME280;34665;51.886;5.436;2022-11-25T05:30:08;100912.63;;;14.19;100.00
48846;BME280;34665;51.886;5.436;2022-11-25T05:32:34;100916.50;;;14.24;100.00
48846;BME280;34665;51.886;5.436;2022-11-25T05:35:07;100920.44;;;13.50;100.00
48846;BME280;34665;51.886;5.436;2022-11-25T05:37:37;100911.78;;;14.95;100.00
48846;BME280;34665;51.886;5.436;2022-11-25T05:40:05;100921.66;;;13.93;100.00
48846;BME280;34665;51.886;5.436;2022-11-25T05:42:36;100917.56;;;13.90;100.00
48846;BME280;34665;51.886;5.436;2022-11-25T05:45:03;100936.63;;;13.82;100.00
48846;BME280;34665;51.886;5.436;2022-11-25T05:47:30;100933.59;;;13.65;100.00
48846;BME280;34665;51.886;5.436;2022-11-25T05:49:57;100940.63;;;14.05;100.00
48846;BME280;34665;51.886;5.436;2022-11-25T05:52:22;100938.75;;;13.73;100.00
48846;BME280;34665;51.886;5.436;2022-11-25T05:54:53;100940.28;;;13.95;100.00
48846;BME280;34665;51.886;5.436;2022-11-25T05:57:18;100945.22;;;13.98;100.00
48846;BME280;34665;51.886;5.436;2022-11-25T05:59:48;100941.13;;;13.50;100.00
48846;BME280;34665;51.886;5.436;2022-11-25T06:02:38;100945.19;;;13.66;100.00
48846;BME280;34665;51.886;5.436;2022-11-25T06:05:05;100953.47;;;13.57;100.00
48846;BME280;34665;51.886;5.436;2022-11-25T06:07:31;100960.25;;;14.44;100.00
48846;BME280;34665;51.886;5.436;2022-11-25T06:09:57;100954.97;;;13.92;100.00
48846;BME280;34665;51.886;5.436;2022-11-25T06:12:22;100956.84;;;13.46;100.00
48846;BME280;34665;51.886;5.436;2022-11-25T06:14:49;100956.44;;;13.88;100.00
48846;BME280;34665;51.886;5.436;2022-11-25T06:17:15;100947.78;;;13.27;100.00
48846;BME280;34665;51.886;5.436;2022-11-25T06:19:50;100951.50;;;13.85;100.00
48846;BME280;34665;51.886;5.436;2022-11-25T06:22:16;100959.94;;;13.43;100.00
48846;BME280;34665;51.886;5.436;2022-11-25T06:24:42;100962.94;;;14.12;100.00
48846;BME280;34665;51.886;5.436;2022-11-25T06:27:08;100956.66;;;13.27;100.00
48846;BME280;34665;51.886;5.436;2022-11-25T06:29:35;100971.94;;;13.27;100.00
48846;BME280;34665;51.886;5.436;2022-11-25T06:32:01;100960.91;;;13.62;100.00
48846;BME280;34665;51.886;5.436;2022-11-25T06:34:34;100972.72;;;14.00;100.00
48846;BME280;34665;51.886;5.436;2022-11-25T06:37:03;100972.38;;;12.90;100.00
48846;BME280;34665;51.886;5.436;2022-11-25T06:39:29;100979.34;;;13.31;100.00
48846;BME280;34665;51.886;5.436;2022-11-25T06:41:55;100983.25;;;13.36;100.00
48846;BME280;34665;51.886;5.436;2022-11-25T06:44:20;100992.34;;;13.41;100.00
48846;BME280;34665;51.886;5.436;2022-11-25T06:46:46;100993.88;;;13.03;100.00
48846;BME280;34665;51.886;5.436;2022-11-25T06:49:11;100998.00;;;13.06;100.00
48846;BME280;34665;51.886;5.436;2022-11-25T06:51:37;101015.53;;;13.09;100.00
48846;BME280;34665;51.886;5.436;2022-11-25T06:54:02;101012.63;;;13.30;100.00
48846;BME280;34665;51.886;5.436;2022-11-25T06:56:28;101010.16;;;13.09;100.00
48846;BME280;34665;51.886;5.436;2022-11-25T06:58:54;101014.09;;;12.79;100.00
48846;BME280;34665;51.886;5.436;2022-11-25T07:01:21;101015.97;;;12.85;100.00
48846;BME280;34665;51.886;5.436;2022-11-25T07:03:49;101025.38;;;13.69;100.00
48846;BME280;34665;51.886;5.436;2022-11-25T07:06:16;101031.03;;;12.80;100.00
48846;BME280;34665;51.886;5.436;2022-11-25T07:08:43;101028.75;;;12.90;100.00
48846;BME280;34665;51.886;5.436;2022-11-25T07:11:24;101022.97;;;13.00;100.00
48846;BME280;34665;51.886;5.436;2022-11-25T07:13:51;101034.97;;;12.97;100.00
48846;BME280;34665;51.886;5.436;2022-11-25T07:16:17;101033.50;;;12.61;100.00
48846;BME280;34665;51.886;5.436;2022-11-25T07:18:43;101036.22;;;13.01;100.00
48846;BME280;34665;51.886;5.436;2022-11-25T07:21:11;101043.66;;;12.99;100.00
48846;BME280;34665;51.886;5.436;2022-11-25T07:23:38;101043.44;;;12.87;100.00
48846;BME280;34665;51.886;5.436;2022-11-25T07:26:10;101050.81;;;13.59;100.00
48846;BME280;34665;51.886;5.436;2022-11-25T07:28:36;101052.50;;;12.80;100.00
48846;BME280;34665;51.886;5.436;2022-11-25T07:31:16;101054.38;;;13.40;100.00
48846;BME280;34665;51.886;5.436;2022-11-25T07:33:43;101062.41;;;12.66;100.00
48846;BME280;34665;51.886;5.436;2022-11-25T07:36:11;101058.69;;;12.73;100.00
48846;BME280;34665;51.886;5.436;2022-11-25T07:38:37;101063.69;;;13.10;100.00
48846;BME280;34665;51.886;5.436;2022-11-25T07:41:05;101082.00;;;12.73;100.00
48846;BME280;34665;51.886;5.436;2022-11-25T07:43:31;101075.59;;;12.67;100.00
48846;BME280;34665;51.886;5.436;2022-11-25T07:46:20;101078.09;;;12.89;100.00
48846;BME280;34665;51.886;5.436;2022-11-25T07:48:45;101091.34;;;13.11;100.00
48846;BME280;34665;51.886;5.436;2022-11-25T07:51:15;101094.00;;;13.38;100.00
48846;BME280;34665;51.886;5.436;2022-11-25T07:53:42;101093.00;;;12.98;100.00
48846;BME280;34665;51.886;5.436;2022-11-25T07:56:07;101097.31;;;13.13;100.00
48846;BME280;34665;51.886;5.436;2022-11-25T07:58:33;101101.06;;;13.25;100.00
48846;BME280;34665;51.886;5.436;2022-11-25T08:01:03;101098.72;;;12.61;100.00
48846;BME280;34665;51.886;5.436;2022-11-25T08:03:28;101107.19;;;12.72;100.00
48846;BME280;34665;51.886;5.436;2022-11-25T08:05:53;101103.91;;;12.76;100.00
48846;BME280;34665;51.886;5.436;2022-11-25T08:08:19;101109.53;;;13.22;100.00
48846;BME280;34665;51.886;5.436;2022-11-25T08:10:44;101112.09;;;12.55;100.00
48846;BME280;34665;51.886;5.436;2022-11-25T08:13:10;101114.69;;;13.10;100.00
48846;BME280;34665;51.886;5.436;2022-11-25T08:15:35;101119.03;;;13.79;100.00
48846;BME280;34665;51.886;5.436;2022-11-25T08:18:01;101127.28;;;13.10;100.00
48846;BME280;34665;51.886;5.436;2022-11-25T08:20:26;101134.75;;;13.48;100.00
48846;BME280;34665;51.886;5.436;2022-11-25T08:22:53;101131.53;;;14.18;100.00
48846;BME280;34665;51.886;5.436;2022-11-25T08:25:18;101135.81;;;14.33;100.00
48846;BME280;34665;51.886;5.436;2022-11-25T08:27:44;101132.59;;;14.95;100.00
48846;BME280;34665;51.886;5.436;2022-11-25T08:30:09;101142.59;;;13.56;100.00
48846;BME280;34665;51.886;5.436;2022-11-25T08:32:38;101148.81;;;13.50;100.00
48846;BME280;34665;51.886;5.436;2022-11-25T08:35:04;101142.34;;;14.51;100.00
48846;BME280;34665;51.886;5.436;2022-11-25T08:37:32;101148.59;;;13.85;100.00
48846;BME280;34665;51.886;5.436;2022-11-25T08:39:57;101143.59;;;13.08;100.00
48846;BME280;34665;51.886;5.436;2022-11-25T08:42:23;101148.78;;;13.77;100.00
48846;BME280;34665;51.886;5.436;2022-11-25T08:44:53;101159.75;;;13.62;100.00
48846;BME280;34665;51.886;5.436;2022-11-25T08:47:20;101160.34;;;13.37;100.00
48846;BME280;34665;51.886;5.436;2022-11-25T08:49:49;101161.59;;;13.41;100.00
48846;BME280;34665;51.886;5.436;2022-11-25T08:52:15;101165.78;;;13.51;100.00
48846;BME280;34665;51.886;5.436;2022-11-25T08:54:40;101169.06;;;13.86;100.00
48846;BME280;34665;51.886;5.436;2022-11-25T08:57:06;101178.34;;;13.90;100.00
48846;BME280;34665;51.886;5.436;2022-11-25T08:59:31;101178.97;;;13.99;100.00
48846;BME280;34665;51.886;5.436;2022-11-25T09:01:56;101178.53;;;13.96;100.00
48846;BME280;34665;51.886;5.436;2022-11-25T09:04:22;101185.75;;;14.15;100.00
48846;BME280;34665;51.886;5.436;2022-11-25T09:06:47;101191.91;;;14.88;100.00
48846;BME280;34665;51.886;5.436;2022-11-25T09:09:13;101192.56;;;15.48;100.00
48846;BME280;34665;51.886;5.436;2022-11-25T09:11:39;101188.53;;;16.76;100.00
48846;BME280;34665;51.886;5.436;2022-11-25T09:14:04;101192.56;;;16.85;100.00
48846;BME280;34665;51.886;5.436;2022-11-25T09:16:30;101204.22;;;16.67;100.00
48846;BME280;34665;51.886;5.436;2022-11-25T09:18:55;101212.97;;;16.81;100.00
48846;BME280;34665;51.886;5.436;2022-11-25T09:21:20;101210.28;;;17.00;100.00
48846;BME280;34665;51.886;5.436;2022-11-25T09:23:49;101213.63;;;17.26;100.00
48846;BME280;34665;51.886;5.436;2022-11-25T09:26:20;101213.19;;;17.41;100.00
48846;BME280;34665;51.886;5.436;2022-11-25T09:28:46;101228.63;;;17.76;100.00
48846;BME280;34665;51.886;5.436;2022-11-25T09:31:12;101233.59;;;17.91;100.00
48846;BME280;34665;51.886;5.436;2022-11-25T09:33:37;101238.53;;;18.30;100.00
48846;BME280;34665;51.886;5.436;2022-11-25T09:36:03;101250.75;;;18.32;100.00
48846;BME280;34665;51.886;5.436;2022-11-25T09:38:30;101238.03;;;18.57;100.00
48846;BME280;34665;51.886;5.436;2022-11-25T09:41:50;101243.19;;;18.70;100.00
48846;BME280;34665;51.886;5.436;2022-11-25T09:45:15;101249.22;;;18.60;100.00
48846;BME280;34665;51.886;5.436;2022-11-25T09:53:43;101267.78;;;19.73;100.00
48846;BME280;34665;51.886;5.436;2022-11-25T09:56:24;101271.13;;;18.88;100.00
48846;BME280;34665;51.886;5.436;2022-11-25T09:58:59;101268.00;;;18.67;100.00
48846;BME280;34665;51.886;5.436;2022-11-25T10:01:28;101274.66;;;19.92;100.00
48846;BME280;34665;51.886;5.436;2022-11-25T10:04:05;101273.47;;;19.54;100.00
48846;BME280;34665;51.886;5.436;2022-11-25T10:06:44;101270.66;;;20.17;100.00
48846;BME280;34665;51.886;5.436;2022-11-25T10:09:13;101287.13;;;20.89;100.00
48846;BME280;34665;51.886;5.436;2022-11-25T10:12:12;101283.34;;;20.73;100.00
48846;BME280;34665;51.886;5.436;2022-11-25T10:14:49;101287.38;;;21.43;100.00
48846;BME280;34665;51.886;5.436;2022-11-25T10:17:44;101291.16;;;22.02;100.00
48846;BME280;34665;51.886;5.436;2022-11-25T10:20:20;101303.97;;;21.69;100.00
48846;BME280;34665;51.886;5.436;2022-11-25T10:22:51;101305.88;;;20.91;100.00
48846;BME280;34665;51.886;5.436;2022-11-25T10:25:24;101314.84;;;21.41;100.00
48846;BME280;34665;51.886;5.436;2022-11-25T10:27:57;101307.44;;;22.34;100.00
48846;BME280;34665;51.886;5.436;2022-11-25T10:30:33;101318.44;;;22.12;93.56
48846;BME280;34665;51.886;5.436;2022-11-25T10:35:54;101319.34;;;22.71;97.19
48846;BME280;34665;51.886;5.436;2022-11-25T10:38:26;101317.06;;;21.72;100.00
48846;BME280;34665;51.886;5.436;2022-11-25T10:40:54;101319.34;;;20.81;100.00
48846;BME280;34665;51.886;5.436;2022-11-25T10:43:20;101327.53;;;21.90;100.00
48846;BME280;34665;51.886;5.436;2022-11-25T10:45:58;101324.44;;;22.14;100.00
48846;BME280;34665;51.886;5.436;2022-11-25T10:48:35;101325.84;;;22.17;94.21
48846;BME280;34665;51.886;5.436;2022-11-25T10:54:12;101336.75;;;21.84;95.69
48846;BME280;34665;51.886;5.436;2022-11-25T10:56:49;101335.19;;;20.67;100.00
48846;BME280;34665;51.886;5.436;2022-11-25T10:59:23;101337.59;;;21.57;99.56
48846;BME280;34665;51.886;5.436;2022-11-25T11:02:04;101342.25;;;22.27;95.40
48846;BME280;34665;51.886;5.436;2022-11-25T11:04:31;101351.72;;;22.52;83.34
48846;BME280;34665;51.886;5.436;2022-11-25T11:07:06;101372.81;;;23.62;82.15
48846;BME280;34665;51.886;5.436;2022-11-25T11:09:37;101355.81;;;22.22;85.32
48846;BME280;34665;51.886;5.436;2022-11-25T11:12:13;101360.44;;;22.16;84.81
48846;BME280;34665;51.886;5.436;2022-11-25T11:14:40;101353.56;;;21.76;89.74
48846;BME280;34665;51.886;5.436;2022-11-25T11:17:20;101370.88;;;21.65;86.23
48846;BME280;34665;51.886;5.436;2022-11-25T11:20:09;101375.59;;;22.88;80.54
48846;BME280;34665;51.886;5.436;2022-11-25T11:22:48;101388.81;;;22.26;84.52
48846;BME280;34665;51.886;5.436;2022-11-25T11:27:45;101390.25;;;23.30;77.82
48846;BME280;34665;51.886;5.436;2022-11-25T11:30:17;101386.25;;;23.79;74.23
48846;BME280;34665;51.886;5.436;2022-11-25T11:32:54;101406.06;;;25.04;67.71
48846;BME280;34665;51.886;5.436;2022-11-25T11:37:52;101412.13;;;23.56;72.19
48846;BME280;34665;51.886;5.436;2022-11-25T11:40:37;101400.72;;;23.00;73.56
48846;BME280;34665;51.886;5.436;2022-11-25T11:43:25;101415.88;;;23.29;74.73
48846;BME280;34665;51.886;5.436;2022-11-25T11:49:12;101413.72;;;23.31;69.63
48846;BME280;34665;51.886;5.436;2022-11-25T11:54:10;101419.59;;;24.28;67.69
48846;BME280;34665;51.886;5.436;2022-11-25T12:02:09;101422.66;;;22.35;73.47
48846;BME280;34665;51.886;5.436;2022-11-25T12:04:44;101435.25;;;25.24;63.15
48846;BME280;34665;51.886;5.436;2022-11-25T12:07:19;101450.63;;;25.70;61.15
48846;BME280;34665;51.886;5.436;2022-11-25T12:10:03;101439.09;;;25.23;61.97
48846;BME280;34665;51.886;5.436;2022-11-25T12:13:04;101444.03;;;25.71;59.24
48846;BME280;34665;51.886;5.436;2022-11-25T12:21:00;101453.84;;;26.23;57.53
48846;BME280;34665;51.886;5.436;2022-11-25T12:23:41;101460.53;;;27.24;55.43
48846;BME280;34665;51.886;5.436;2022-11-25T12:26:18;101462.00;;;27.36;53.92
48846;BME280;34665;51.886;5.436;2022-11-25T12:28:53;101461.22;;;26.27;55.88
48846;BME280;34665;51.886;5.436;2022-11-25T12:31:30;101460.59;;;24.02;63.71
48846;BME280;34665;51.886;5.436;2022-11-25T12:34:06;101465.06;;;22.20;73.00
48846;BME280;34665;51.886;5.436;2022-11-25T12:36:37;101473.22;;;21.66;82.80
48846;BME280;34665;51.886;5.436;2022-11-25T12:41:50;101454.16;;;21.66;90.71
48846;BME280;34665;51.886;5.436;2022-11-25T12:44:22;101462.16;;;22.00;86.00
48846;BME280;34665;51.886;5.436;2022-11-25T12:46:53;101464.31;;;23.70;76.47
48846;BME280;34665;51.886;5.436;2022-11-25T12:49:28;101484.38;;;24.27;72.22
48846;BME280;34665;51.886;5.436;2022-11-25T12:57:44;101480.94;;;22.61;78.55
48846;BME280;34665;51.886;5.436;2022-11-25T13:00:21;101477.59;;;22.92;81.46
48846;BME280;34665;51.886;5.436;2022-11-25T13:05:42;101486.75;;;23.98;73.98
48846;BME280;34665;51.886;5.436;2022-11-25T13:14:37;101520.72;;;24.95;68.93
48846;BME280;34665;51.886;5.436;2022-11-25T13:17:12;101521.53;;;24.23;70.81
48846;BME280;34665;51.886;5.436;2022-11-25T13:19:39;101528.91;;;24.90;69.39
48846;BME280;34665;51.886;5.436;2022-11-25T13:24:51;101526.09;;;22.85;78.67
48846;BME280;34665;51.886;5.436;2022-11-25T13:27:28;101538.72;;;22.96;80.61
48846;BME280;34665;51.886;5.436;2022-11-25T13:29:54;101531.56;;;22.85;82.34
48846;BME280;34665;51.886;5.436;2022-11-25T13:32:31;101539.53;;;23.34;79.46
48846;BME280;34665;51.886;5.436;2022-11-25T13:37:51;101547.75;;;20.86;96.67
48846;BME280;34665;51.886;5.436;2022-11-25T13:42:46;101545.72;;;20.64;99.93
48846;BME280;34665;51.886;5.436;2022-11-25T13:45:26;101536.59;;;20.07;100.00
48846;BME280;34665;51.886;5.436;2022-11-25T13:50:31;101543.91;;;20.53;100.00
48846;BME280;34665;51.886;5.436;2022-11-25T13:53:02;101550.88;;;20.95;100.00
48846;BME280;34665;51.886;5.436;2022-11-25T13:55:32;101542.75;;;20.48;100.00
48846;BME280;34665;51.886;5.436;2022-11-25T13:58:15;101557.03;;;20.73;100.00
48846;BME280;34665;51.886;5.436;2022-11-25T14:06:05;101565.03;;;21.53;98.87